createdAt,value
2016-12-26T00:00:49.818Z,93.65
2016-12-26T00:01:49.492Z,94.03
2016-12-26T00:02:49.473Z,93.84
2016-12-26T00:03:49.455Z,93.37
2016-12-26T00:04:49.440Z,93.93
2016-12-26T00:05:49.423Z,93.93
2016-12-26T00:06:49.725Z,94.98
2016-12-26T00:07:49.441Z,95.56
2016-12-26T00:08:49.376Z,95.75
2016-12-26T00:09:49.362Z,95.75
2016-12-26T00:10:49.345Z,95.46
2016-12-26T00:11:49.330Z,95.84
2016-12-26T00:12:49.313Z,95.46
2016-12-26T00:13:49.348Z,95.84
2016-12-26T00:14:49.287Z,95.46
2016-12-26T00:15:49.271Z,95.46
2016-12-26T00:16:49.252Z,94.7
2016-12-26T00:17:49.236Z,94.6
2016-12-26T00:18:49.217Z,94.6
2016-12-26T00:19:49.204Z,94.32
2016-12-26T00:20:49.189Z,95.84
2016-12-26T00:21:49.170Z,96.6
2016-12-26T00:22:49.156Z,96.8
2016-12-26T00:23:49.141Z,96.7
2016-12-26T00:24:49.126Z,96.7
2016-12-26T00:25:49.113Z,97.36
2016-12-26T00:26:49.095Z,96.41
2016-12-26T00:27:49.078Z,97.46
2016-12-26T00:28:49.376Z,98.22
2016-12-26T00:29:49.047Z,99.94
2016-12-26T00:30:49.033Z,99.27
2016-12-26T00:31:49.014Z,98.89
2016-12-26T00:32:49.025Z,99.08
2016-12-26T00:33:48.990Z,97.99
2016-12-26T00:34:49.377Z,97.94
2016-12-26T00:35:48.953Z,98.32
2016-12-26T00:36:49.251Z,98.13
2016-12-26T00:37:48.926Z,97.27
2016-12-26T00:38:48.909Z,97.56
2016-12-26T00:39:49.210Z,98.79
2016-12-26T00:40:48.873Z,98.89
2016-12-26T00:41:48.867Z,98.75
2016-12-26T00:42:49.162Z,98.51
2016-12-26T00:43:48.830Z,97.84
2016-12-26T00:44:48.818Z,98.13
2016-12-26T00:45:48.799Z,97.17
2016-12-26T00:46:48.777Z,97.89
2016-12-26T00:47:48.768Z,97.17
2016-12-26T00:48:49.061Z,96.75
2016-12-26T00:49:48.733Z,98.56
2016-12-26T00:50:48.718Z,97.41
2016-12-26T00:51:48.702Z,99.6
2016-12-26T00:52:48.693Z,99.22
2016-12-26T00:53:48.668Z,97.27
2016-12-26T00:54:48.652Z,98.27
2016-12-26T00:55:48.643Z,98.46
2016-12-26T00:56:48.623Z,99.99
2016-12-26T00:57:48.608Z,99.51
2016-12-26T00:58:48.593Z,99.8
2016-12-26T00:59:48.896Z,99.32
2016-12-26T01:00:48.563Z,99.32
2016-12-26T01:01:48.547Z,98.85
2016-12-26T01:02:48.846Z,98.85
2016-12-26T01:03:48.518Z,98.46
2016-12-26T01:04:48.548Z,97.89
2016-12-26T01:05:48.485Z,98.27
2016-12-26T01:06:48.471Z,97.7
2016-12-26T01:07:48.765Z,97.22
2016-12-26T01:08:48.435Z,97.03
2016-12-26T01:09:48.420Z,96.65
2016-12-26T01:10:48.407Z,96.84
2016-12-26T01:11:48.389Z,96.56
2016-12-26T01:12:48.371Z,96.46
2016-12-26T01:13:48.358Z,96.46
2016-12-26T01:14:48.343Z,94.93
2016-12-26T01:15:48.324Z,95.22
2016-12-26T01:16:48.314Z,95.65
2016-12-26T01:17:48.310Z,96.84
2016-12-26T01:18:48.277Z,96.46
2016-12-26T01:19:48.262Z,96.46
2016-12-26T01:20:48.247Z,97.41
2016-12-26T01:21:48.233Z,98.46
2016-12-26T01:22:48.217Z,99.7
2016-12-26T01:23:48.200Z,98.85
2016-12-26T01:24:48.183Z,99.6
2016-12-26T01:25:48.170Z,99.99
2016-12-26T01:26:48.464Z,99.99
2016-12-26T01:27:48.136Z,99.99
2016-12-26T01:28:48.126Z,99.04
2016-12-26T01:29:48.105Z,99.51
2016-12-26T01:30:48.116Z,99.7
2016-12-26T01:31:48.073Z,99.32
2016-12-26T01:32:48.062Z,99.51
2016-12-26T01:33:48.044Z,98.27
2016-12-26T01:34:48.028Z,99.99
2016-12-26T01:35:48.012Z,99.41
2016-12-26T01:36:47.995Z,98.94
2016-12-26T01:37:47.978Z,99.13
2016-12-26T01:38:47.971Z,98.46
2016-12-26T01:39:47.947Z,98.94
2016-12-26T01:40:47.934Z,98.85
2016-12-26T01:41:47.918Z,99.32
2016-12-26T01:42:47.905Z,98.56
2016-12-26T01:43:47.888Z,99.8
2016-12-26T01:44:48.183Z,98.56
2016-12-26T01:45:47.853Z,98.75
2016-12-26T01:46:47.836Z,98.36
2016-12-26T01:47:47.826Z,98.75
2016-12-26T01:48:47.810Z,99.41
2016-12-26T01:49:47.790Z,99.41
2016-12-26T01:50:47.774Z,98.36
2016-12-26T01:51:47.762Z,97.89
2016-12-26T01:52:47.743Z,97.8
2016-12-26T01:53:47.728Z,97.32
2016-12-26T01:54:47.718Z,96.94
2016-12-26T01:55:47.696Z,97.22
2016-12-26T01:56:47.690Z,97.27
2016-12-26T01:57:47.667Z,97.7
2016-12-26T01:58:47.653Z,98.85
2016-12-26T01:59:47.634Z,99.6
2016-12-26T02:00:47.622Z,99.6
2016-12-26T02:01:47.605Z,99.99
2016-12-26T02:02:47.589Z,99.99
2016-12-26T02:03:47.573Z,99.99
2016-12-26T02:04:47.555Z,99.99
2016-12-26T02:05:47.542Z,99.99
2016-12-26T02:06:47.524Z,99.99
2016-12-26T02:07:47.511Z,99.99
2016-12-26T02:08:47.492Z,99.99
2016-12-26T02:09:47.477Z,99.99
2016-12-26T02:10:47.460Z,99.99
2016-12-26T02:11:47.445Z,99.99
2016-12-26T02:12:47.434Z,99.99
2016-12-26T02:13:47.416Z,99.99
2016-12-26T02:14:47.398Z,99.99
2016-12-26T02:15:47.383Z,99.99
2016-12-26T02:16:47.369Z,99.99
2016-12-26T02:17:47.352Z,99.89
2016-12-26T02:18:47.338Z,99.89
2016-12-26T02:19:47.321Z,99.99
2016-12-26T02:20:47.307Z,99.99
2016-12-26T02:21:47.289Z,99.99
2016-12-26T02:22:47.277Z,99.99
2016-12-26T02:23:47.263Z,99.99
2016-12-26T02:24:47.245Z,99.99
2016-12-26T02:25:47.225Z,99.99
2016-12-26T02:26:47.211Z,99.99
2016-12-26T02:27:47.511Z,99.99
2016-12-26T02:28:47.179Z,99.99
2016-12-26T02:29:47.168Z,99.99
2016-12-26T02:30:47.151Z,99.99
2016-12-26T02:31:47.134Z,99.99
2016-12-26T02:32:47.439Z,99.99
2016-12-26T02:33:47.110Z,99.99
2016-12-26T02:34:47.083Z,99.99
2016-12-26T02:35:47.072Z,99.99
2016-12-26T02:36:47.053Z,99.99
2016-12-26T02:37:47.037Z,99.99
2016-12-26T02:38:47.020Z,99.99
2016-12-26T02:39:47.007Z,99.99
2016-12-26T02:40:46.989Z,99.99
2016-12-26T02:41:46.976Z,99.99
2016-12-26T02:42:46.960Z,99.99
2016-12-26T02:43:46.941Z,99.99
2016-12-26T02:44:46.929Z,99.99
2016-12-26T02:45:46.912Z,99.89
2016-12-26T02:46:46.895Z,99.6
2016-12-26T02:47:46.879Z,99.99
2016-12-26T02:48:46.865Z,98.85
2016-12-26T02:49:46.848Z,99.41
2016-12-26T02:50:46.836Z,98.75
2016-12-26T02:51:46.819Z,98.46
2016-12-26T02:52:46.802Z,97.7
2016-12-26T02:53:46.784Z,97.13
2016-12-26T02:54:46.768Z,96.46
2016-12-26T02:55:46.754Z,96.17
2016-12-26T02:56:46.736Z,96.08
2016-12-26T02:57:46.721Z,95.89
2016-12-26T02:58:46.756Z,96.98
2016-12-26T02:59:46.694Z,96.56
2016-12-26T03:00:46.676Z,96.94
2016-12-26T03:01:46.684Z,97.08
2016-12-26T03:02:46.643Z,97.03
2016-12-26T03:03:46.628Z,96.56
2016-12-26T03:04:46.650Z,96.51
2016-12-26T03:05:46.598Z,96.6
2016-12-26T03:06:46.939Z,96.27
2016-12-26T03:07:46.567Z,96.22
2016-12-26T03:08:46.549Z,96.65
2016-12-26T03:09:46.536Z,96.32
2016-12-26T03:10:46.514Z,97.03
2016-12-26T03:11:46.506Z,97.22
2016-12-26T03:12:46.487Z,97.03
2016-12-26T03:13:46.468Z,96.75
2016-12-26T03:14:46.453Z,96.65
2016-12-26T03:15:46.437Z,96.94
2016-12-26T03:16:46.449Z,97.22
2016-12-26T03:17:46.407Z,96.46
2016-12-26T03:18:46.393Z,96.94
2016-12-26T03:19:46.374Z,96.36
2016-12-26T03:20:46.361Z,95.89
2016-12-26T03:21:46.341Z,95.51
2016-12-26T03:22:46.332Z,95.17
2016-12-26T03:23:46.313Z,94.37
2016-12-26T03:24:46.295Z,94.65
2016-12-26T03:25:46.285Z,94.79
2016-12-26T03:26:46.265Z,94.84
2016-12-26T03:27:46.250Z,94.41
2016-12-26T03:28:46.233Z,94.46
2016-12-26T03:29:46.218Z,93.74
2016-12-26T03:30:46.202Z,93.65
2016-12-26T03:31:46.236Z,93.27
2016-12-26T03:32:46.170Z,93.27
2016-12-26T03:33:46.159Z,93.08
2016-12-26T03:34:46.139Z,92.69
2016-12-26T03:35:46.177Z,92.89
2016-12-26T03:36:46.111Z,92.32
2016-12-26T03:37:46.092Z,92.69
2016-12-26T03:38:46.394Z,92.69
2016-12-26T03:39:46.113Z,93.46
2016-12-26T03:40:46.046Z,93.08
2016-12-26T03:41:46.343Z,92.6
2016-12-26T03:42:46.014Z,92.5
2016-12-26T03:43:46.002Z,92.03
2016-12-26T03:44:45.984Z,91.65
2016-12-26T03:45:45.964Z,91.74
2016-12-26T03:46:45.950Z,91.46
2016-12-26T03:47:45.935Z,90.89
2016-12-26T03:48:46.231Z,90.6
2016-12-26T03:49:45.902Z,90.6
2016-12-26T03:50:45.890Z,90.31
2016-12-26T03:51:45.875Z,89.84
2016-12-26T03:52:45.856Z,89.36
2016-12-26T03:53:45.842Z,89.26
2016-12-26T03:54:46.139Z,89.17
2016-12-26T03:55:45.807Z,89.46
2016-12-26T03:56:45.793Z,89.26
2016-12-26T03:57:45.780Z,88.89
2016-12-26T03:58:45.761Z,88.89
2016-12-26T03:59:45.746Z,89.36
2016-12-26T04:00:46.045Z,88.98
2016-12-26T04:01:45.712Z,88.98
2016-12-26T04:02:45.699Z,88.89
2016-12-26T04:03:45.677Z,89.55
2016-12-26T04:04:45.663Z,89.26
2016-12-26T04:05:45.961Z,89.17
2016-12-26T04:06:45.635Z,89.17
2016-12-26T04:07:45.671Z,88.89
2016-12-26T04:08:45.604Z,89.07
2016-12-26T04:09:45.587Z,89.17
2016-12-26T04:10:45.572Z,89.07
2016-12-26T04:11:45.554Z,88.89
2016-12-26T04:12:45.541Z,88.51
2016-12-26T04:13:45.523Z,88.41
2016-12-26T04:14:45.509Z,88.12
2016-12-26T04:15:45.490Z,88.31
2016-12-26T04:16:45.476Z,88.31
2016-12-26T04:17:45.465Z,88.03
2016-12-26T04:18:45.446Z,87.93
2016-12-26T04:19:45.745Z,87.65
2016-12-26T04:20:45.409Z,87.65
2016-12-26T04:21:45.398Z,87.46
2016-12-26T04:22:45.379Z,87.65
2016-12-26T04:23:45.362Z,87.07
2016-12-26T04:24:45.348Z,87.17
2016-12-26T04:25:45.333Z,87.36
2016-12-26T04:26:45.316Z,86.98
2016-12-26T04:27:45.297Z,87.17
2016-12-26T04:28:45.282Z,87.27
2016-12-26T04:29:45.320Z,87.36
2016-12-26T04:30:45.252Z,87.36
2016-12-26T04:31:45.238Z,87.17
2016-12-26T04:32:45.221Z,87.17
2016-12-26T04:33:45.535Z,87.17
2016-12-26T04:34:45.189Z,87.27
2016-12-26T04:35:45.686Z,86.88
2016-12-26T04:36:45.157Z,87.07
2016-12-26T04:37:45.139Z,87.46
2016-12-26T04:38:45.123Z,87.17
2016-12-26T04:39:45.108Z,87.27
2016-12-26T04:40:45.091Z,86.98
2016-12-26T04:41:45.077Z,87.07
2016-12-26T04:42:45.065Z,87.07
2016-12-26T04:43:45.046Z,87.46
2016-12-26T04:44:45.030Z,87.07
2016-12-26T04:45:45.014Z,87.74
2016-12-26T04:46:45.001Z,87.65
2016-12-26T04:47:44.979Z,87.46
2016-12-26T04:48:44.963Z,87.07
2016-12-26T04:49:44.945Z,87.27
2016-12-26T04:50:45.244Z,87.17
2016-12-26T04:51:44.918Z,86.6
2016-12-26T04:52:44.900Z,86.32
2016-12-26T04:53:45.199Z,86.51
2016-12-26T04:54:44.872Z,86.79
2016-12-26T04:55:44.856Z,86.69
2016-12-26T04:56:44.835Z,86.88
2016-12-26T04:57:44.824Z,86.69
2016-12-26T04:58:44.810Z,86.51
2016-12-26T04:59:44.889Z,86.51
2016-12-26T05:00:44.774Z,86.6
2016-12-26T05:01:44.761Z,86.41
2016-12-26T05:02:44.745Z,86.51
2016-12-26T05:03:44.725Z,86.32
2016-12-26T05:04:44.720Z,86.6
2016-12-26T05:05:44.697Z,86.32
2016-12-26T05:06:44.731Z,86.6
2016-12-26T05:07:44.671Z,86.51
2016-12-26T05:08:44.650Z,86.69
2016-12-26T05:09:44.629Z,86.6
2016-12-26T05:10:44.613Z,86.69
2016-12-26T05:11:44.604Z,86.12
2016-12-26T05:12:44.583Z,86.51
2016-12-26T05:13:44.568Z,86.6
2016-12-26T05:14:44.552Z,86.6
2016-12-26T05:15:44.536Z,86.32
2016-12-26T05:16:44.516Z,86.51
2016-12-26T05:17:44.501Z,86.32
2016-12-26T05:18:44.487Z,86.69
2016-12-26T05:19:44.781Z,85.93
2016-12-26T05:20:44.453Z,86.03
2016-12-26T05:21:44.436Z,86.03
2016-12-26T05:22:44.422Z,86.03
2016-12-26T05:23:44.435Z,86.12
2016-12-26T05:24:44.391Z,86.12
2016-12-26T05:25:44.375Z,86.12
2016-12-26T05:26:44.355Z,86.12
2016-12-26T05:27:44.342Z,86.03
2016-12-26T05:28:44.327Z,85.93
2016-12-26T05:29:44.316Z,85.84
2016-12-26T05:30:44.298Z,86.03
2016-12-26T05:31:44.282Z,85.84
2016-12-26T05:32:44.263Z,86.03
2016-12-26T05:33:44.270Z,86.03
2016-12-26T05:34:44.544Z,86.69
2016-12-26T05:35:44.212Z,86.51
2016-12-26T05:36:44.197Z,86.32
2016-12-26T05:37:44.197Z,86.12
2016-12-26T05:38:44.163Z,86.79
2016-12-26T05:39:44.465Z,86.6
2016-12-26T05:40:44.139Z,86.12
2016-12-26T05:41:44.121Z,86.51
2016-12-26T05:42:44.102Z,86.32
2016-12-26T05:43:44.399Z,86.41
2016-12-26T05:44:44.069Z,86.41
2016-12-26T05:45:44.369Z,86.79
2016-12-26T05:46:44.037Z,86.69
2016-12-26T05:47:44.031Z,86.69
2016-12-26T05:48:44.328Z,86.6
2016-12-26T05:49:43.988Z,86.69
2016-12-26T05:50:43.971Z,86.6
2016-12-26T05:51:43.962Z,86.69
2016-12-26T05:52:43.989Z,86.6
2016-12-26T05:53:43.925Z,86.6
2016-12-26T05:54:43.913Z,86.6
2016-12-26T05:55:43.895Z,87.07
2016-12-26T05:56:43.877Z,87.07
2016-12-26T05:57:43.861Z,86.51
2016-12-26T05:58:43.843Z,86.69
2016-12-26T05:59:43.831Z,86.6
2016-12-26T06:00:43.841Z,86.79
2016-12-26T06:01:43.797Z,86.51
2016-12-26T06:02:43.834Z,86.6
2016-12-26T06:03:43.771Z,86.79
2016-12-26T06:04:43.750Z,86.98
2016-12-26T06:05:43.732Z,86.88
2016-12-26T06:06:43.720Z,86.6
2016-12-26T06:07:43.700Z,86.88
2016-12-26T06:08:43.686Z,86.98
2016-12-26T06:09:43.666Z,86.79
2016-12-26T06:10:43.652Z,86.79
2016-12-26T06:11:43.949Z,86.79
2016-12-26T06:12:43.619Z,86.69
2016-12-26T06:13:43.613Z,87.07
2016-12-26T06:14:43.589Z,86.6
2016-12-26T06:15:43.577Z,86.6
2016-12-26T06:16:43.559Z,86.51
2016-12-26T06:17:43.539Z,86.51
2016-12-26T06:18:43.527Z,86.41
2016-12-26T06:19:43.506Z,86.79
2016-12-26T06:20:43.493Z,86.51
2016-12-26T06:21:43.477Z,86.79
2016-12-26T06:22:43.458Z,86.79
2016-12-26T06:23:43.443Z,87.55
2016-12-26T06:24:43.479Z,87.55
2016-12-26T06:25:43.414Z,87.46
2016-12-26T06:26:43.399Z,87.17
2016-12-26T06:27:43.383Z,87.36
2016-12-26T06:28:43.363Z,87.46
2016-12-26T06:29:43.350Z,87.36
2016-12-26T06:30:43.333Z,87.07
2016-12-26T06:31:43.315Z,87.55
2016-12-26T06:32:43.299Z,87.46
2016-12-26T06:33:43.284Z,87.74
2016-12-26T06:34:43.267Z,87.65
2016-12-26T06:35:43.453Z,87.46
2016-12-26T06:36:43.549Z,87.84
2016-12-26T06:37:43.219Z,87.84
2016-12-26T06:38:43.205Z,87.84
2016-12-26T06:39:43.191Z,88.12
2016-12-26T06:40:43.180Z,88.12
2016-12-26T06:41:43.163Z,88.22
2016-12-26T06:42:43.144Z,88.31
2016-12-26T06:43:43.126Z,88.22
2016-12-26T06:44:43.113Z,88.12
2016-12-26T06:45:43.092Z,88.12
2016-12-26T06:46:43.079Z,88.6
2016-12-26T06:47:43.060Z,88.03
2016-12-26T06:48:43.045Z,88.41
2016-12-26T06:49:43.027Z,88.89
2016-12-26T06:50:43.015Z,88.79
2016-12-26T06:51:42.996Z,88.41
2016-12-26T06:52:42.983Z,88.51
2016-12-26T06:53:42.963Z,88.51
2016-12-26T06:54:42.946Z,88.7
2016-12-26T06:55:42.932Z,88.41
2016-12-26T06:56:42.916Z,88.51
2016-12-26T06:57:42.904Z,88.22
2016-12-26T06:58:42.890Z,88.41
2016-12-26T06:59:42.871Z,88.6
2016-12-26T07:00:42.856Z,88.6
2016-12-26T07:01:42.838Z,88.41
2016-12-26T07:02:42.821Z,88.79
2016-12-26T07:03:42.805Z,88.41
2016-12-26T07:04:42.789Z,88.7
2016-12-26T07:05:42.774Z,88.7
2016-12-26T07:06:42.759Z,89.07
2016-12-26T07:07:42.742Z,88.7
2016-12-26T07:08:42.725Z,88.89
2016-12-26T07:09:42.710Z,88.98
2016-12-26T07:10:42.694Z,88.79
2016-12-26T07:11:42.676Z,88.79
2016-12-26T07:12:42.661Z,88.79
2016-12-26T07:13:42.645Z,88.7
2016-12-26T07:14:42.629Z,88.7
2016-12-26T07:15:42.615Z,88.89
2016-12-26T07:16:42.597Z,88.98
2016-12-26T07:17:42.580Z,88.98
2016-12-26T07:18:42.568Z,89.26
2016-12-26T07:19:42.553Z,89.36
2016-12-26T07:20:42.540Z,89.36
2016-12-26T07:21:42.517Z,89.55
2016-12-26T07:22:42.504Z,89.07
2016-12-26T07:23:42.484Z,88.79
2016-12-26T07:24:42.470Z,89.17
2016-12-26T07:25:42.453Z,88.79
2016-12-26T07:26:42.435Z,89.26
2016-12-26T07:27:42.739Z,89.26
2016-12-26T07:28:42.403Z,89.36
2016-12-26T07:29:42.439Z,89.26
2016-12-26T07:30:42.375Z,89.26
2016-12-26T07:31:42.363Z,89.55
2016-12-26T07:32:42.340Z,89.07
2016-12-26T07:33:42.330Z,89.26
2016-12-26T07:34:42.312Z,89.36
2016-12-26T07:35:42.293Z,89.36
2016-12-26T07:36:42.586Z,89.55
2016-12-26T07:37:42.260Z,89.36
2016-12-26T07:38:42.246Z,89.26
2016-12-26T07:39:42.233Z,89.17
2016-12-26T07:40:42.214Z,89.17
2016-12-26T07:41:42.197Z,89.26
2016-12-26T07:42:42.184Z,89.07
2016-12-26T07:43:42.479Z,89.07
2016-12-26T07:44:42.152Z,89.84
2016-12-26T07:45:42.136Z,89.46
2016-12-26T07:46:42.121Z,89.46
2016-12-26T07:47:42.099Z,89.07
2016-12-26T07:48:42.086Z,89.84
2016-12-26T07:49:42.071Z,89.26
2016-12-26T07:50:42.056Z,89.26
2016-12-26T07:51:42.041Z,89.75
2016-12-26T07:52:42.022Z,89.46
2016-12-26T07:53:42.009Z,89.55
2016-12-26T07:54:41.996Z,89.26
2016-12-26T07:55:41.975Z,89.46
2016-12-26T07:56:41.966Z,89.55
2016-12-26T07:57:42.258Z,89.55
2016-12-26T07:58:42.239Z,90.12
2016-12-26T07:59:41.909Z,90.12
2016-12-26T08:00:41.894Z,89.84
2016-12-26T08:01:41.882Z,89.84
2016-12-26T08:02:42.173Z,90.12
2016-12-26T08:03:41.847Z,90.03
2016-12-26T08:04:41.832Z,89.94
2016-12-26T08:05:41.816Z,89.94
2016-12-26T08:06:41.801Z,90.22
2016-12-26T08:07:41.784Z,90.12
2016-12-26T08:08:41.765Z,90.89
2016-12-26T08:09:41.754Z,90.41
2016-12-26T08:10:41.742Z,90.41
2016-12-26T08:11:41.718Z,90.22
2016-12-26T08:12:41.705Z,90.41
2016-12-26T08:13:41.687Z,90.6
2016-12-26T08:14:41.676Z,90.6
2016-12-26T08:15:41.657Z,90.31
2016-12-26T08:16:41.952Z,90.31
2016-12-26T08:17:41.941Z,90.31
2016-12-26T08:18:41.923Z,90.41
2016-12-26T08:19:41.596Z,90.7
2016-12-26T08:20:41.618Z,90.7
2016-12-26T08:21:41.560Z,90.41
2016-12-26T08:22:42.378Z,90.31
2016-12-26T08:23:41.546Z,90.98
2016-12-26T08:24:41.516Z,90.7
2016-12-26T08:25:41.501Z,90.98
2016-12-26T08:26:41.482Z,91.46
2016-12-26T08:27:41.472Z,91.17
2016-12-26T08:28:41.461Z,90.98
2016-12-26T08:29:41.441Z,91.36
2016-12-26T08:30:41.418Z,91.27
2016-12-26T08:31:41.406Z,91.27
2016-12-26T08:32:41.387Z,91.36
2016-12-26T08:33:41.374Z,91.41
2016-12-26T08:34:41.417Z,91.6
2016-12-26T08:35:41.546Z,91.08
2016-12-26T08:36:41.646Z,91.27
2016-12-26T08:37:41.308Z,91.69
2016-12-26T08:38:41.610Z,92.03
2016-12-26T08:39:41.276Z,91.65
2016-12-26T08:40:41.269Z,91.74
2016-12-26T08:41:41.252Z,91.27
2016-12-26T08:42:41.230Z,93.65
2016-12-26T08:43:41.523Z,97.13
2016-12-26T08:44:41.511Z,99.13
2016-12-26T08:45:41.498Z,99.99
2016-12-26T08:46:41.194Z,99.99
2016-12-26T08:47:41.183Z,99.99
2016-12-26T08:48:41.143Z,99.99
2016-12-26T08:49:41.117Z,99.99
2016-12-26T08:50:41.103Z,99.99
2016-12-26T08:51:41.093Z,99.99
2016-12-26T08:52:41.068Z,99.99
2016-12-26T08:53:41.102Z,99.99
2016-12-26T08:54:41.038Z,99.99
2016-12-26T08:55:41.021Z,99.99
2016-12-26T08:56:41.005Z,99.99
2016-12-26T08:57:40.989Z,99.31
2016-12-26T08:58:40.971Z,99.02
2016-12-26T08:59:40.958Z,98.74
2016-12-26T09:00:40.937Z,98.97
2016-12-26T09:01:40.924Z,99.07
2016-12-26T09:02:40.903Z,98.6
2016-12-26T09:03:40.889Z,98.12
2016-12-26T09:04:40.871Z,98.79
2016-12-26T09:05:40.857Z,98.12
2016-12-26T09:06:40.839Z,98.69
2016-12-26T09:07:40.825Z,98.69
2016-12-26T09:08:40.805Z,98.03
2016-12-26T09:09:40.791Z,97.36
2016-12-26T09:10:40.773Z,98.5
2016-12-26T09:11:41.069Z,98.6
2016-12-26T09:12:41.048Z,98.88
2016-12-26T09:13:40.724Z,98.22
2016-12-26T09:14:40.706Z,98.79
2016-12-26T09:15:40.684Z,99.55
2016-12-26T09:16:40.671Z,99.99
2016-12-26T09:17:40.660Z,99.99
2016-12-26T09:18:40.635Z,99.99
2016-12-26T09:19:40.620Z,99.99
2016-12-26T09:20:40.604Z,99.99
2016-12-26T09:21:40.591Z,99.99
2016-12-26T09:22:40.567Z,99.99
2016-12-26T09:23:40.550Z,99.99
2016-12-26T09:24:40.535Z,99.99
2016-12-26T09:25:40.517Z,99.99
2016-12-26T09:26:40.497Z,99.99
2016-12-26T09:27:40.481Z,99.99
2016-12-26T09:28:40.469Z,99.99
2016-12-26T09:29:40.451Z,99.99
2016-12-26T09:30:40.745Z,99.99
2016-12-26T09:31:40.414Z,99.99
2016-12-26T09:32:40.400Z,99.99
2016-12-26T09:33:40.379Z,99.99
2016-12-26T09:34:40.739Z,99.99
2016-12-26T09:35:40.345Z,99.99
2016-12-26T09:36:40.327Z,99.99
2016-12-26T09:37:40.312Z,99.99
2016-12-26T09:38:40.297Z,99.99
2016-12-26T09:39:40.280Z,99.99
2016-12-26T09:40:40.573Z,99.99
2016-12-26T09:41:40.278Z,99.99
2016-12-26T09:42:40.224Z,99.99
2016-12-26T09:43:40.206Z,99.99
2016-12-26T09:44:40.189Z,99.99
2016-12-26T09:45:40.174Z,99.99
2016-12-26T09:46:40.157Z,99.99
2016-12-26T09:47:40.135Z,99.99
2016-12-26T09:48:40.121Z,99.99
2016-12-26T09:49:40.103Z,99.99
2016-12-26T09:50:40.085Z,99.99
2016-12-26T09:51:40.072Z,99.99
2016-12-26T09:52:40.056Z,99.99
2016-12-26T09:53:40.034Z,99.99
2016-12-26T09:54:40.015Z,99.99
2016-12-26T09:55:39.998Z,99.99
2016-12-26T09:56:39.984Z,99.99
2016-12-26T09:57:39.964Z,99.99
2016-12-26T09:58:39.948Z,99.99
2016-12-26T09:59:40.238Z,99.99
2016-12-26T10:00:39.911Z,99.99
2016-12-26T10:01:40.313Z,99.99
2016-12-26T10:02:39.872Z,99.99
2016-12-26T10:03:39.858Z,99.99
2016-12-26T10:04:39.838Z,99.99
2016-12-26T10:05:39.816Z,99.99
2016-12-26T10:06:39.801Z,99.99
2016-12-26T10:07:39.782Z,99.99
2016-12-26T10:08:39.762Z,99.99
2016-12-26T10:09:39.746Z,99.99
2016-12-26T10:10:40.041Z,99.99
2016-12-26T10:11:39.713Z,99.99
2016-12-26T10:12:39.695Z,99.99
2016-12-26T10:13:39.675Z,99.99
2016-12-26T10:14:39.658Z,99.99
2016-12-26T10:15:39.639Z,99.99
2016-12-26T10:16:39.622Z,99.99
2016-12-26T10:17:39.606Z,99.99
2016-12-26T10:18:39.584Z,99.99
2016-12-26T10:19:39.570Z,99.99
2016-12-26T10:20:39.860Z,99.99
2016-12-26T10:21:39.534Z,99.99
2016-12-26T10:22:39.514Z,99.99
2016-12-26T10:23:39.498Z,99.99
2016-12-26T10:24:39.480Z,99.99
2016-12-26T10:25:39.459Z,99.99
2016-12-26T10:26:39.442Z,99.99
2016-12-26T10:27:39.429Z,99.99
2016-12-26T10:28:39.404Z,99.99
2016-12-26T10:29:39.385Z,99.99
2016-12-26T10:30:39.372Z,99.99
2016-12-26T10:31:39.352Z,99.99
2016-12-26T10:32:39.330Z,99.99
2016-12-26T10:33:39.626Z,99.99
2016-12-26T10:34:39.294Z,99.99
2016-12-26T10:35:39.477Z,99.99
2016-12-26T10:36:39.290Z,99.99
2016-12-26T10:37:39.241Z,99.99
2016-12-26T10:38:39.223Z,99.99
2016-12-26T10:39:39.202Z,99.99
2016-12-26T10:40:39.188Z,99.99
2016-12-26T10:41:39.169Z,99.99
2016-12-26T10:42:39.162Z,99.99
2016-12-26T10:43:39.133Z,99.99
2016-12-26T10:44:39.426Z,99.99
2016-12-26T10:45:39.100Z,99.99
2016-12-26T10:46:39.077Z,99.99
2016-12-26T10:47:39.057Z,99.99
2016-12-26T10:48:39.038Z,99.99
2016-12-26T10:49:39.336Z,99.99
2016-12-26T10:50:39.004Z,99.99
2016-12-26T10:51:38.984Z,99.99
2016-12-26T10:52:38.965Z,99.99
2016-12-26T10:53:38.951Z,99.99
2016-12-26T10:54:38.932Z,99.99
2016-12-26T10:55:38.935Z,99.99
2016-12-26T10:56:39.207Z,99.99
2016-12-26T10:57:38.873Z,99.99
2016-12-26T10:58:38.877Z,99.99
2016-12-26T10:59:38.854Z,99.99
2016-12-26T11:00:38.830Z,99.99
2016-12-26T11:01:38.808Z,99.99
2016-12-26T11:02:38.783Z,99.99
2016-12-26T11:03:38.769Z,99.99
2016-12-26T11:04:38.748Z,99.99
2016-12-26T11:05:38.736Z,99.99
2016-12-26T11:06:38.713Z,99.99
2016-12-26T11:07:38.700Z,99.99
2016-12-26T11:08:38.991Z,99.99
2016-12-26T11:09:38.660Z,99.99
2016-12-26T11:10:38.645Z,99.99
2016-12-26T11:11:38.626Z,99.99
2016-12-26T11:12:38.604Z,99.99
2016-12-26T11:13:38.587Z,99.99
2016-12-26T11:14:38.570Z,99.99
2016-12-26T11:15:38.556Z,99.99
2016-12-26T11:16:38.537Z,99.99
2016-12-26T11:17:38.523Z,99.99
2016-12-26T11:18:38.499Z,99.99
2016-12-26T11:19:38.482Z,99.99
2016-12-26T11:20:38.470Z,99.99
2016-12-26T11:21:38.448Z,99.99
2016-12-26T11:22:38.429Z,99.99
2016-12-26T11:23:38.416Z,99.99
2016-12-26T11:24:38.710Z,99.99
2016-12-26T11:25:38.380Z,99.99
2016-12-26T11:26:38.360Z,99.99
2016-12-26T11:27:38.344Z,99.99
2016-12-26T11:28:38.331Z,99.99
2016-12-26T11:29:38.310Z,99.99
2016-12-26T11:30:38.293Z,99.99
2016-12-26T11:31:38.278Z,99.99
2016-12-26T11:32:38.579Z,99.99
2016-12-26T11:33:38.243Z,99.99
2016-12-26T11:34:38.227Z,99.99
2016-12-26T11:35:38.211Z,99.99
2016-12-26T11:36:38.189Z,99.99
2016-12-26T11:37:38.179Z,99.99
2016-12-26T11:38:38.158Z,99.99
2016-12-26T11:39:38.140Z,99.99
2016-12-26T11:40:38.123Z,99.99
2016-12-26T11:41:38.104Z,99.99
2016-12-26T11:42:38.089Z,99.99
2016-12-26T11:43:38.073Z,99.99
2016-12-26T11:44:38.048Z,99.99
2016-12-26T11:45:38.036Z,99.99
2016-12-26T11:46:38.017Z,99.99
2016-12-26T11:47:38.002Z,99.99
2016-12-26T11:48:37.985Z,99.99
2016-12-26T11:49:38.278Z,99.99
2016-12-26T11:50:37.952Z,99.99
2016-12-26T11:51:37.929Z,99.99
2016-12-26T11:52:37.917Z,99.99
2016-12-26T11:53:37.908Z,99.99
2016-12-26T11:54:37.883Z,99.99
2016-12-26T11:55:37.862Z,99.99
2016-12-26T11:56:37.846Z,99.99
2016-12-26T11:57:37.834Z,99.99
2016-12-26T11:58:37.831Z,99.99
2016-12-26T11:59:37.802Z,99.99
2016-12-26T12:00:37.785Z,99.99
2016-12-26T12:01:37.772Z,99.99
2016-12-26T12:02:37.755Z,99.99
2016-12-26T12:03:37.731Z,99.99
2016-12-26T12:04:37.712Z,99.99
2016-12-26T12:05:37.699Z,99.99
2016-12-26T12:06:37.687Z,99.99
2016-12-26T12:07:37.665Z,99.99
2016-12-26T12:08:37.646Z,99.99
2016-12-26T12:09:37.631Z,99.99
2016-12-26T12:10:37.612Z,99.99
2016-12-26T12:11:37.599Z,99.99
2016-12-26T12:12:37.583Z,99.99
2016-12-26T12:13:37.583Z,99.99
2016-12-26T12:14:37.554Z,99.99
2016-12-26T12:15:37.537Z,99.99
2016-12-26T12:16:37.519Z,99.99
2016-12-26T12:17:37.500Z,99.99
2016-12-26T12:18:37.805Z,99.99
2016-12-26T12:19:37.471Z,99.99
2016-12-26T12:20:37.453Z,99.99
2016-12-26T12:21:37.439Z,99.99
2016-12-26T12:22:37.428Z,99.99
2016-12-26T12:23:37.409Z,99.99
2016-12-26T12:24:37.400Z,99.99
2016-12-26T12:25:37.378Z,99.99
2016-12-26T12:26:37.369Z,99.99
2016-12-26T12:27:37.350Z,99.99
2016-12-26T12:28:37.337Z,99.99
2016-12-26T12:29:37.325Z,99.99
2016-12-26T12:30:37.310Z,99.99
2016-12-26T12:31:37.292Z,99.99
2016-12-26T12:32:37.756Z,99.99
2016-12-26T12:33:37.611Z,99.99
2016-12-26T12:34:37.256Z,99.99
2016-12-26T12:35:37.642Z,99.99
2016-12-26T12:36:37.218Z,99.99
2016-12-26T12:37:37.306Z,99.99
2016-12-26T12:38:37.192Z,99.99
2016-12-26T12:39:37.172Z,99.99
2016-12-26T12:40:37.156Z,99.99
2016-12-26T12:41:37.147Z,99.99
2016-12-26T12:42:37.127Z,99.99
2016-12-26T12:43:37.107Z,99.99
2016-12-26T12:44:37.106Z,99.99
2016-12-26T12:45:37.080Z,99.99
2016-12-26T12:46:37.066Z,99.99
2016-12-26T12:47:37.048Z,99.99
2016-12-26T12:48:37.032Z,99.99
2016-12-26T12:49:37.019Z,99.99
2016-12-26T12:50:37.004Z,99.99
2016-12-26T12:51:36.988Z,99.99
2016-12-26T12:52:36.969Z,99.99
2016-12-26T12:53:36.956Z,99.99
2016-12-26T12:54:36.938Z,99.99